Terminal Aerodrome Forecast
Issued by NWS Blacksburg, VA

Home | Current Version | Previous Version | Text Only | Print | Product List | Glossary On
Versions: 1 2 3 4 5 6 7 8 9 10 11 12 13 14 15 16 17 18
000
FTUS41 KRNK 171720
TAFBLF
TAF
KBLF 171720Z 1718/1818 VRB03KT P6SM FEW250
     FM180800 17007KT P6SM BKN090
     FM181000 18007KT P6SM OVC060 WS020/22035KT
     FM181500 21010KT P6SM SCT035 BKN060 WS020/23045KT
     FM181700 21013G24KT P6SM SCT035 BKN060=

USA.gov is the U.S. government's official web portal to all federal, state and local government web resources and services.